sensor_id;sensor_type;location;lat;lon;timestamp;temperature;humidity
17399;DHT22;8817;48.170;8.592;2023-02-13T00:00:28;7.70;46.40
17399;DHT22;8817;48.170;8.592;2023-02-13T00:02:54;7.60;46.90
17399;DHT22;8817;48.170;8.592;2023-02-13T00:05:21;7.60;46.40
17399;DHT22;8817;48.170;8.592;2023-02-13T00:07:48;7.60;46.50
17399;DHT22;8817;48.170;8.592;2023-02-13T00:10:15;7.60;46.50
17399;DHT22;8817;48.170;8.592;2023-02-13T00:12:44;7.60;46.50
17399;DHT22;8817;48.170;8.592;2023-02-13T00:15:11;7.50;46.50
17399;DHT22;8817;48.170;8.592;2023-02-13T00:17:38;7.50;46.50
17399;DHT22;8817;48.170;8.592;2023-02-13T00:20:06;7.50;46.50
17399;DHT22;8817;48.170;8.592;2023-02-13T00:22:34;7.50;46.60
17399;DHT22;8817;48.170;8.592;2023-02-13T00:25:02;7.50;46.60
17399;DHT22;8817;48.170;8.592;2023-02-13T00:27:29;7.50;46.60
17399;DHT22;8817;48.170;8.592;2023-02-13T00:29:58;7.50;46.60
17399;DHT22;8817;48.170;8.592;2023-02-13T00:32:25;7.50;46.70
17399;DHT22;8817;48.170;8.592;2023-02-13T00:34:52;7.50;46.70
17399;DHT22;8817;48.170;8.592;2023-02-13T00:37:19;7.50;46.70
17399;DHT22;8817;48.170;8.592;2023-02-13T00:39:46;7.60;46.80
17399;DHT22;8817;48.170;8.592;2023-02-13T00:42:13;7.60;46.80
17399;DHT22;8817;48.170;8.592;2023-02-13T00:44:40;7.60;46.80
17399;DHT22;8817;48.170;8.592;2023-02-13T00:47:08;7.60;46.80
17399;DHT22;8817;48.170;8.592;2023-02-13T00:49:39;7.60;46.80
17399;DHT22;8817;48.170;8.592;2023-02-13T00:52:06;7.60;46.70
17399;DHT22;8817;48.170;8.592;2023-02-13T00:54:33;7.60;46.70
17399;DHT22;8817;48.170;8.592;2023-02-13T00:57:00;7.60;46.70
17399;DHT22;8817;48.170;8.592;2023-02-13T00:59:27;7.60;46.70
17399;DHT22;8817;48.170;8.592;2023-02-13T01:01:53;7.60;46.70
17399;DHT22;8817;48.170;8.592;2023-02-13T01:04:22;7.50;46.70
17399;DHT22;8817;48.170;8.592;2023-02-13T01:06:49;7.50;46.70
17399;DHT22;8817;48.170;8.592;2023-02-13T01:09:15;7.50;46.60
17399;DHT22;8817;48.170;8.592;2023-02-13T01:11:42;7.50;46.60
17399;DHT22;8817;48.170;8.592;2023-02-13T01:14:09;7.40;46.60
17399;DHT22;8817;48.170;8.592;2023-02-13T01:16:36;7.40;46.50
17399;DHT22;8817;48.170;8.592;2023-02-13T01:19:03;7.30;46.50
17399;DHT22;8817;48.170;8.592;2023-02-13T01:21:32;7.30;46.50
17399;DHT22;8817;48.170;8.592;2023-02-13T01:24:02;7.30;46.60
17399;DHT22;8817;48.170;8.592;2023-02-13T01:26:29;7.30;46.60
17399;DHT22;8817;48.170;8.592;2023-02-13T01:28:56;7.20;46.70
17399;DHT22;8817;48.170;8.592;2023-02-13T01:31:24;7.20;46.70
17399;DHT22;8817;48.170;8.592;2023-02-13T01:33:51;7.20;46.60
17399;DHT22;8817;48.170;8.592;2023-02-13T01:36:18;7.20;46.70
17399;DHT22;8817;48.170;8.592;2023-02-13T01:38:46;7.20;46.70
17399;DHT22;8817;48.170;8.592;2023-02-13T01:41:13;7.10;46.60
17399;DHT22;8817;48.170;8.592;2023-02-13T01:43:47;7.10;46.70
17399;DHT22;8817;48.170;8.592;2023-02-13T01:46:18;7.10;46.70
17399;DHT22;8817;48.170;8.592;2023-02-13T01:48:47;7.10;46.70
17399;DHT22;8817;48.170;8.592;2023-02-13T01:51:18;7.10;46.70
17399;DHT22;8817;48.170;8.592;2023-02-13T01:53:50;7.10;46.70
17399;DHT22;8817;48.170;8.592;2023-02-13T01:56:22;7.10;46.80
17399;DHT22;8817;48.170;8.592;2023-02-13T01:58:54;7.10;46.80
17399;DHT22;8817;48.170;8.592;2023-02-13T02:01:22;7.10;46.80
17399;DHT22;8817;48.170;8.592;2023-02-13T02:03:53;7.20;46.90
17399;DHT22;8817;48.170;8.592;2023-02-13T02:06:25;7.20;46.90
17399;DHT22;8817;48.170;8.592;2023-02-13T02:08:56;7.20;47.00
17399;DHT22;8817;48.170;8.592;2023-02-13T02:11:30;7.20;46.90
17399;DHT22;8817;48.170;8.592;2023-02-13T02:13:58;7.20;47.00
17399;DHT22;8817;48.170;8.592;2023-02-13T02:16:26;7.20;46.90
17399;DHT22;8817;48.170;8.592;2023-02-13T02:18:54;7.20;46.90
17399;DHT22;8817;48.170;8.592;2023-02-13T02:21:40;7.20;47.40
17399;DHT22;8817;48.170;8.592;2023-02-13T02:33:16;7.20;46.80
17399;DHT22;8817;48.170;8.592;2023-02-13T02:35:52;7.10;46.70
17399;DHT22;8817;48.170;8.592;2023-02-13T02:38:30;7.20;46.80
17399;DHT22;8817;48.170;8.592;2023-02-13T02:41:07;7.20;46.80
17399;DHT22;8817;48.170;8.592;2023-02-13T02:43:47;7.10;46.80
17399;DHT22;8817;48.170;8.592;2023-02-13T02:46:21;7.20;46.90
17399;DHT22;8817;48.170;8.592;2023-02-13T02:48:55;7.10;46.80
17399;DHT22;8817;48.170;8.592;2023-02-13T02:51:46;7.10;46.80
17399;DHT22;8817;48.170;8.592;2023-02-13T02:54:18;7.10;46.80
17399;DHT22;8817;48.170;8.592;2023-02-13T02:57:09;7.10;46.80
17399;DHT22;8817;48.170;8.592;2023-02-13T02:59:39;7.10;46.90
17399;DHT22;8817;48.170;8.592;2023-02-13T03:02:25;7.10;46.90
17399;DHT22;8817;48.170;8.592;2023-02-13T03:05:16;7.10;46.90
17399;DHT22;8817;48.170;8.592;2023-02-13T03:08:02;7.10;46.90
17399;DHT22;8817;48.170;8.592;2023-02-13T03:10:32;7.20;46.90
17399;DHT22;8817;48.170;8.592;2023-02-13T03:13:32;7.10;46.90
17399;DHT22;8817;48.170;8.592;2023-02-13T03:16:00;7.10;46.90
17399;DHT22;8817;48.170;8.592;2023-02-13T03:18:51;7.10;46.80
17399;DHT22;8817;48.170;8.592;2023-02-13T03:21:46;7.10;46.80
17399;DHT22;8817;48.170;8.592;2023-02-13T03:24:37;7.10;46.80
17399;DHT22;8817;48.170;8.592;2023-02-13T03:27:19;7.00;46.70
17399;DHT22;8817;48.170;8.592;2023-02-13T03:30:15;7.00;46.60
17399;DHT22;8817;48.170;8.592;2023-02-13T03:32:49;7.00;46.60
17399;DHT22;8817;48.170;8.592;2023-02-13T03:35:26;6.90;46.60
17399;DHT22;8817;48.170;8.592;2023-02-13T03:38:15;6.80;46.60
17399;DHT22;8817;48.170;8.592;2023-02-13T03:40:47;6.80;46.70
17399;DHT22;8817;48.170;8.592;2023-02-13T03:43:38;6.80;46.70
17399;DHT22;8817;48.170;8.592;2023-02-13T03:46:09;6.80;46.70
17399;DHT22;8817;48.170;8.592;2023-02-13T03:48:38;6.70;46.70
17399;DHT22;8817;48.170;8.592;2023-02-13T03:51:26;6.70;46.70
17399;DHT22;8817;48.170;8.592;2023-02-13T03:53:59;6.70;46.70
17399;DHT22;8817;48.170;8.592;2023-02-13T03:56:28;6.70;46.60
17399;DHT22;8817;48.170;8.592;2023-02-13T03:59:19;6.60;46.60
17399;DHT22;8817;48.170;8.592;2023-02-13T04:01:59;6.60;46.60
17399;DHT22;8817;48.170;8.592;2023-02-13T04:04:33;6.60;46.60
17399;DHT22;8817;48.170;8.592;2023-02-13T04:07:04;6.50;46.60
17399;DHT22;8817;48.170;8.592;2023-02-13T04:09:36;6.50;46.60
17399;DHT22;8817;48.170;8.592;2023-02-13T04:12:11;6.40;46.50
17399;DHT22;8817;48.170;8.592;2023-02-13T04:14:43;6.40;46.60
17399;DHT22;8817;48.170;8.592;2023-02-13T04:17:14;6.40;46.70
17399;DHT22;8817;48.170;8.592;2023-02-13T04:19:43;6.30;46.60
17399;DHT22;8817;48.170;8.592;2023-02-13T04:22:11;6.30;46.70
17399;DHT22;8817;48.170;8.592;2023-02-13T04:24:40;6.30;46.80
17399;DHT22;8817;48.170;8.592;2023-02-13T04:27:08;6.30;46.80
17399;DHT22;8817;48.170;8.592;2023-02-13T04:29:36;6.30;46.80
17399;DHT22;8817;48.170;8.592;2023-02-13T04:32:03;6.30;46.80
17399;DHT22;8817;48.170;8.592;2023-02-13T04:34:30;6.30;46.80
17399;DHT22;8817;48.170;8.592;2023-02-13T04:36:56;6.40;46.90
17399;DHT22;8817;48.170;8.592;2023-02-13T04:39:23;6.30;46.80
17399;DHT22;8817;48.170;8.592;2023-02-13T04:41:52;6.30;46.90
17399;DHT22;8817;48.170;8.592;2023-02-13T04:44:18;6.40;46.90
17399;DHT22;8817;48.170;8.592;2023-02-13T04:46:45;6.40;47.00
17399;DHT22;8817;48.170;8.592;2023-02-13T04:49:12;6.40;47.00
17399;DHT22;8817;48.170;8.592;2023-02-13T04:51:39;6.40;47.10
17399;DHT22;8817;48.170;8.592;2023-02-13T04:54:06;6.40;47.10
17399;DHT22;8817;48.170;8.592;2023-02-13T04:56:33;6.50;47.20
17399;DHT22;8817;48.170;8.592;2023-02-13T04:59:02;6.50;47.30
17399;DHT22;8817;48.170;8.592;2023-02-13T05:01:29;6.50;47.20
17399;DHT22;8817;48.170;8.592;2023-02-13T05:03:55;6.60;47.30
17399;DHT22;8817;48.170;8.592;2023-02-13T05:06:22;6.60;47.30
17399;DHT22;8817;48.170;8.592;2023-02-13T05:08:49;6.60;47.30
17399;DHT22;8817;48.170;8.592;2023-02-13T05:11:16;6.60;47.30
17399;DHT22;8817;48.170;8.592;2023-02-13T05:13:43;6.70;47.30
17399;DHT22;8817;48.170;8.592;2023-02-13T05:16:11;6.70;47.30
17399;DHT22;8817;48.170;8.592;2023-02-13T05:18:38;6.70;47.30
17399;DHT22;8817;48.170;8.592;2023-02-13T05:21:05;6.70;47.30
17399;DHT22;8817;48.170;8.592;2023-02-13T05:23:49;6.70;47.30
17399;DHT22;8817;48.170;8.592;2023-02-13T05:26:16;6.70;47.40
17399;DHT22;8817;48.170;8.592;2023-02-13T05:28:43;6.80;47.40
17399;DHT22;8817;48.170;8.592;2023-02-13T05:31:29;6.80;47.40
17399;DHT22;8817;48.170;8.592;2023-02-13T05:33:55;6.80;47.40
17399;DHT22;8817;48.170;8.592;2023-02-13T05:36:22;6.90;47.40
17399;DHT22;8817;48.170;8.592;2023-02-13T05:38:49;6.80;47.30
17399;DHT22;8817;48.170;8.592;2023-02-13T05:41:16;6.80;47.30
17399;DHT22;8817;48.170;8.592;2023-02-13T05:43:43;6.90;47.40
17399;DHT22;8817;48.170;8.592;2023-02-13T05:46:10;6.90;47.40
17399;DHT22;8817;48.170;8.592;2023-02-13T05:48:38;6.90;47.40
17399;DHT22;8817;48.170;8.592;2023-02-13T05:51:05;6.90;47.50
17399;DHT22;8817;48.170;8.592;2023-02-13T05:53:33;6.90;47.50
17399;DHT22;8817;48.170;8.592;2023-02-13T05:56:00;6.90;47.50
17399;DHT22;8817;48.170;8.592;2023-02-13T05:58:28;6.90;47.50
17399;DHT22;8817;48.170;8.592;2023-02-13T06:00:56;6.90;47.50
17399;DHT22;8817;48.170;8.592;2023-02-13T06:03:23;6.90;47.50
17399;DHT22;8817;48.170;8.592;2023-02-13T06:05:52;6.90;47.50
17399;DHT22;8817;48.170;8.592;2023-02-13T06:08:19;6.90;47.50
17399;DHT22;8817;48.170;8.592;2023-02-13T06:10:46;6.90;47.50
17399;DHT22;8817;48.170;8.592;2023-02-13T06:13:13;6.90;47.50
17399;DHT22;8817;48.170;8.592;2023-02-13T06:15:40;6.90;47.50
17399;DHT22;8817;48.170;8.592;2023-02-13T06:18:07;6.90;47.50
17399;DHT22;8817;48.170;8.592;2023-02-13T06:20:34;6.90;47.50
17399;DHT22;8817;48.170;8.592;2023-02-13T06:23:03;6.90;47.50
17399;DHT22;8817;48.170;8.592;2023-02-13T06:25:30;6.90;47.50
17399;DHT22;8817;48.170;8.592;2023-02-13T06:27:56;6.90;47.50
17399;DHT22;8817;48.170;8.592;2023-02-13T06:30:23;6.90;47.50
17399;DHT22;8817;48.170;8.592;2023-02-13T06:32:50;6.90;47.50
17399;DHT22;8817;48.170;8.592;2023-02-13T06:35:17;6.80;47.50
17399;DHT22;8817;48.170;8.592;2023-02-13T06:37:44;6.80;47.50
17399;DHT22;8817;48.170;8.592;2023-02-13T06:40:14;6.80;47.40
17399;DHT22;8817;48.170;8.592;2023-02-13T06:42:41;6.80;47.50
17399;DHT22;8817;48.170;8.592;2023-02-13T06:45:09;6.70;47.50
17399;DHT22;8817;48.170;8.592;2023-02-13T06:47:40;6.80;47.60
17399;DHT22;8817;48.170;8.592;2023-02-13T06:50:07;6.70;47.60
17399;DHT22;8817;48.170;8.592;2023-02-13T06:52:34;6.70;47.60
17399;DHT22;8817;48.170;8.592;2023-02-13T06:55:01;6.70;47.70
17399;DHT22;8817;48.170;8.592;2023-02-13T06:57:31;6.70;47.70
17399;DHT22;8817;48.170;8.592;2023-02-13T06:59:58;6.70;47.70
17399;DHT22;8817;48.170;8.592;2023-02-13T07:02:28;6.70;47.70
17399;DHT22;8817;48.170;8.592;2023-02-13T07:04:55;6.70;47.70
17399;DHT22;8817;48.170;8.592;2023-02-13T07:07:21;6.70;47.70
17399;DHT22;8817;48.170;8.592;2023-02-13T07:09:49;6.70;47.70
17399;DHT22;8817;48.170;8.592;2023-02-13T07:12:16;6.70;47.80
17399;DHT22;8817;48.170;8.592;2023-02-13T07:14:44;6.70;48.30
17399;DHT22;8817;48.170;8.592;2023-02-13T07:17:11;6.70;47.80
17399;DHT22;8817;48.170;8.592;2023-02-13T07:19:38;6.70;47.90
17399;DHT22;8817;48.170;8.592;2023-02-13T07:22:05;6.70;47.80
17399;DHT22;8817;48.170;8.592;2023-02-13T07:24:32;6.70;47.80
17399;DHT22;8817;48.170;8.592;2023-02-13T07:27:00;6.80;47.90
17399;DHT22;8817;48.170;8.592;2023-02-13T07:29:27;6.70;47.80
17399;DHT22;8817;48.170;8.592;2023-02-13T07:31:55;6.80;47.90
17399;DHT22;8817;48.170;8.592;2023-02-13T07:34:22;6.80;47.90
17399;DHT22;8817;48.170;8.592;2023-02-13T07:36:49;6.80;48.00
17399;DHT22;8817;48.170;8.592;2023-02-13T07:39:17;6.80;47.90
17399;DHT22;8817;48.170;8.592;2023-02-13T07:41:44;6.80;47.90
17399;DHT22;8817;48.170;8.592;2023-02-13T07:44:11;6.80;47.90
17399;DHT22;8817;48.170;8.592;2023-02-13T07:46:38;6.80;47.90
17399;DHT22;8817;48.170;8.592;2023-02-13T07:49:06;6.80;47.90
17399;DHT22;8817;48.170;8.592;2023-02-13T07:51:33;6.70;47.90
17399;DHT22;8817;48.170;8.592;2023-02-13T07:54:00;6.70;47.90
17399;DHT22;8817;48.170;8.592;2023-02-13T07:56:27;6.80;48.00
17399;DHT22;8817;48.170;8.592;2023-02-13T07:58:54;6.80;48.00
17399;DHT22;8817;48.170;8.592;2023-02-13T08:01:21;6.80;48.10
17399;DHT22;8817;48.170;8.592;2023-02-13T08:03:48;6.80;48.20
17399;DHT22;8817;48.170;8.592;2023-02-13T08:06:18;6.80;48.20
17399;DHT22;8817;48.170;8.592;2023-02-13T08:08:45;6.80;48.20
17399;DHT22;8817;48.170;8.592;2023-02-13T08:11:23;6.80;48.20
17399;DHT22;8817;48.170;8.592;2023-02-13T08:14:09;6.80;48.30
17399;DHT22;8817;48.170;8.592;2023-02-13T08:16:36;6.80;48.20
17399;DHT22;8817;48.170;8.592;2023-02-13T08:19:03;6.80;48.20
17399;DHT22;8817;48.170;8.592;2023-02-13T08:21:31;6.80;48.20
17399;DHT22;8817;48.170;8.592;2023-02-13T08:24:00;6.80;48.20
17399;DHT22;8817;48.170;8.592;2023-02-13T08:26:26;6.80;48.20
17399;DHT22;8817;48.170;8.592;2023-02-13T08:28:56;6.80;48.20
17399;DHT22;8817;48.170;8.592;2023-02-13T08:31:23;6.90;48.30
17399;DHT22;8817;48.170;8.592;2023-02-13T08:33:50;6.90;48.30
17399;DHT22;8817;48.170;8.592;2023-02-13T08:36:17;6.90;48.30
17399;DHT22;8817;48.170;8.592;2023-02-13T08:38:47;6.90;48.30
17399;DHT22;8817;48.170;8.592;2023-02-13T08:41:14;6.90;48.40
17399;DHT22;8817;48.170;8.592;2023-02-13T08:43:42;6.90;48.30
17399;DHT22;8817;48.170;8.592;2023-02-13T08:46:10;6.90;48.30
17399;DHT22;8817;48.170;8.592;2023-02-13T08:48:37;6.90;48.40
17399;DHT22;8817;48.170;8.592;2023-02-13T08:51:05;6.90;48.40
17399;DHT22;8817;48.170;8.592;2023-02-13T08:53:33;6.90;48.40
17399;DHT22;8817;48.170;8.592;2023-02-13T08:56:02;6.90;48.40
17399;DHT22;8817;48.170;8.592;2023-02-13T08:58:29;6.90;48.40
17399;DHT22;8817;48.170;8.592;2023-02-13T09:00:56;6.90;48.30
17399;DHT22;8817;48.170;8.592;2023-02-13T09:03:23;6.90;48.40
17399;DHT22;8817;48.170;8.592;2023-02-13T09:05:50;6.90;48.40
17399;DHT22;8817;48.170;8.592;2023-02-13T09:08:17;6.90;48.40
17399;DHT22;8817;48.170;8.592;2023-02-13T09:10:44;6.90;48.50
17399;DHT22;8817;48.170;8.592;2023-02-13T09:13:12;6.90;49.00
17399;DHT22;8817;48.170;8.592;2023-02-13T09:15:39;6.90;48.50
17399;DHT22;8817;48.170;8.592;2023-02-13T09:18:07;6.80;48.50
17399;DHT22;8817;48.170;8.592;2023-02-13T09:20:34;6.90;48.60
17399;DHT22;8817;48.170;8.592;2023-02-13T09:23:00;6.80;48.60
17399;DHT22;8817;48.170;8.592;2023-02-13T09:25:27;6.90;48.60
17399;DHT22;8817;48.170;8.592;2023-02-13T09:27:54;6.90;48.70
17399;DHT22;8817;48.170;8.592;2023-02-13T09:30:23;6.90;49.30
17399;DHT22;8817;48.170;8.592;2023-02-13T09:32:50;6.90;48.80
17399;DHT22;8817;48.170;8.592;2023-02-13T09:35:17;6.90;48.80
17399;DHT22;8817;48.170;8.592;2023-02-13T09:37:44;7.00;48.80
17399;DHT22;8817;48.170;8.592;2023-02-13T09:40:20;7.00;48.90
17399;DHT22;8817;48.170;8.592;2023-02-13T09:42:49;7.00;48.90
17399;DHT22;8817;48.170;8.592;2023-02-13T09:45:19;7.10;48.90
17399;DHT22;8817;48.170;8.592;2023-02-13T09:47:49;7.10;48.90
17399;DHT22;8817;48.170;8.592;2023-02-13T09:50:21;7.10;48.90
17399;DHT22;8817;48.170;8.592;2023-02-13T09:52:50;7.10;48.80
17399;DHT22;8817;48.170;8.592;2023-02-13T09:55:20;7.10;48.80
17399;DHT22;8817;48.170;8.592;2023-02-13T09:57:54;7.20;48.90
17399;DHT22;8817;48.170;8.592;2023-02-13T10:00:25;7.20;48.90
17399;DHT22;8817;48.170;8.592;2023-02-13T10:03:12;7.20;48.90
17399;DHT22;8817;48.170;8.592;2023-02-13T10:05:47;7.20;48.90
17399;DHT22;8817;48.170;8.592;2023-02-13T10:08:30;7.20;48.90
17399;DHT22;8817;48.170;8.592;2023-02-13T10:11:06;7.20;49.00
17399;DHT22;8817;48.170;8.592;2023-02-13T10:13:49;7.30;49.00
17399;DHT22;8817;48.170;8.592;2023-02-13T10:16:22;7.30;49.10
17399;DHT22;8817;48.170;8.592;2023-02-13T10:18:56;7.30;49.10
17399;DHT22;8817;48.170;8.592;2023-02-13T10:21:28;7.30;49.10
17399;DHT22;8817;48.170;8.592;2023-02-13T10:23:58;7.30;49.10
17399;DHT22;8817;48.170;8.592;2023-02-13T10:26:30;7.40;49.20
17399;DHT22;8817;48.170;8.592;2023-02-13T10:29:13;7.50;49.30
17399;DHT22;8817;48.170;8.592;2023-02-13T10:32:00;7.50;49.30
17399;DHT22;8817;48.170;8.592;2023-02-13T10:34:33;7.50;49.30
17399;DHT22;8817;48.170;8.592;2023-02-13T10:37:02;7.50;49.30
17399;DHT22;8817;48.170;8.592;2023-02-13T10:39:34;7.60;49.40
17399;DHT22;8817;48.170;8.592;2023-02-13T10:42:05;7.60;49.30
17399;DHT22;8817;48.170;8.592;2023-02-13T10:47:44;7.70;49.40
17399;DHT22;8817;48.170;8.592;2023-02-13T10:50:20;7.70;49.40
17399;DHT22;8817;48.170;8.592;2023-02-13T10:52:54;7.80;49.40
17399;DHT22;8817;48.170;8.592;2023-02-13T10:55:40;7.80;49.40
17399;DHT22;8817;48.170;8.592;2023-02-13T10:58:15;7.80;49.50
17399;DHT22;8817;48.170;8.592;2023-02-13T11:00:47;7.90;49.50
17399;DHT22;8817;48.170;8.592;2023-02-13T11:03:19;7.90;49.40
17399;DHT22;8817;48.170;8.592;2023-02-13T11:05:49;7.90;49.30
17399;DHT22;8817;48.170;8.592;2023-02-13T11:08:19;7.90;49.30
17399;DHT22;8817;48.170;8.592;2023-02-13T11:10:47;7.90;49.90
17399;DHT22;8817;48.170;8.592;2023-02-13T11:13:17;7.90;49.40
17399;DHT22;8817;48.170;8.592;2023-02-13T11:15:59;7.90;49.50
17399;DHT22;8817;48.170;8.592;2023-02-13T11:18:29;7.90;49.50
17399;DHT22;8817;48.170;8.592;2023-02-13T11:21:02;8.00;49.50
17399;DHT22;8817;48.170;8.592;2023-02-13T11:23:39;8.00;49.50
17399;DHT22;8817;48.170;8.592;2023-02-13T11:26:09;8.00;49.50
17399;DHT22;8817;48.170;8.592;2023-02-13T11:28:44;8.00;49.50
17399;DHT22;8817;48.170;8.592;2023-02-13T11:31:20;8.00;49.50
17399;DHT22;8817;48.170;8.592;2023-02-13T11:33:48;8.00;49.60
17399;DHT22;8817;48.170;8.592;2023-02-13T11:36:23;8.10;49.60
17399;DHT22;8817;48.170;8.592;2023-02-13T11:39:00;8.10;50.20
17399;DHT22;8817;48.170;8.592;2023-02-13T11:41:29;8.10;49.70
17399;DHT22;8817;48.170;8.592;2023-02-13T11:43:58;8.10;49.70
17399;DHT22;8817;48.170;8.592;2023-02-13T11:46:28;8.20;49.70
17399;DHT22;8817;48.170;8.592;2023-02-13T11:49:00;8.20;49.80
17399;DHT22;8817;48.170;8.592;2023-02-13T11:51:37;8.20;49.80
17399;DHT22;8817;48.170;8.592;2023-02-13T11:54:05;8.20;49.70
17399;DHT22;8817;48.170;8.592;2023-02-13T11:56:50;8.20;49.70
17399;DHT22;8817;48.170;8.592;2023-02-13T11:59:17;8.20;49.70
17399;DHT22;8817;48.170;8.592;2023-02-13T12:02:01;8.30;49.70
17399;DHT22;8817;48.170;8.592;2023-02-13T12:04:28;8.20;49.80
17399;DHT22;8817;48.170;8.592;2023-02-13T12:07:01;8.30;49.80
17399;DHT22;8817;48.170;8.592;2023-02-13T12:09:29;8.30;49.80
17399;DHT22;8817;48.170;8.592;2023-02-13T12:11:59;8.30;49.80
17399;DHT22;8817;48.170;8.592;2023-02-13T12:14:32;8.30;50.00
17399;DHT22;8817;48.170;8.592;2023-02-13T12:17:04;8.30;50.00
17399;DHT22;8817;48.170;8.592;2023-02-13T12:19:36;8.30;50.10
17399;DHT22;8817;48.170;8.592;2023-02-13T12:28:02;8.50;50.50
17399;DHT22;8817;48.170;8.592;2023-02-13T12:30:58;8.60;50.60
17399;DHT22;8817;48.170;8.592;2023-02-13T12:33:49;8.70;50.60
17399;DHT22;8817;48.170;8.592;2023-02-13T12:36:20;8.80;50.80
17399;DHT22;8817;48.170;8.592;2023-02-13T12:39:02;8.90;50.90
17399;DHT22;8817;48.170;8.592;2023-02-13T12:41:37;9.10;51.10
17399;DHT22;8817;48.170;8.592;2023-02-13T12:44:38;9.20;51.20
17399;DHT22;8817;48.170;8.592;2023-02-13T12:47:15;9.40;51.20
17399;DHT22;8817;48.170;8.592;2023-02-13T12:50:20;9.50;51.10
17399;DHT22;8817;48.170;8.592;2023-02-13T12:53:13;9.60;51.00
17399;DHT22;8817;48.170;8.592;2023-02-13T12:56:02;9.70;51.00
17399;DHT22;8817;48.170;8.592;2023-02-13T12:58:51;9.80;51.00
17399;DHT22;8817;48.170;8.592;2023-02-13T13:01:29;9.90;51.20
17399;DHT22;8817;48.170;8.592;2023-02-13T13:04:06;10.00;51.20
17399;DHT22;8817;48.170;8.592;2023-02-13T13:06:53;10.10;51.10
17399;DHT22;8817;48.170;8.592;2023-02-13T13:12:44;10.20;50.90
17399;DHT22;8817;48.170;8.592;2023-02-13T13:15:17;10.30;50.90
17399;DHT22;8817;48.170;8.592;2023-02-13T13:17:57;10.40;51.00
17399;DHT22;8817;48.170;8.592;2023-02-13T13:20:42;10.40;51.40
17399;DHT22;8817;48.170;8.592;2023-02-13T13:23:19;10.40;51.00
17399;DHT22;8817;48.170;8.592;2023-02-13T13:25:52;10.50;51.00
17399;DHT22;8817;48.170;8.592;2023-02-13T13:28:24;10.50;51.50
17399;DHT22;8817;48.170;8.592;2023-02-13T13:30:52;10.50;51.00
17399;DHT22;8817;48.170;8.592;2023-02-13T13:33:21;10.60;51.00
17399;DHT22;8817;48.170;8.592;2023-02-13T13:36:06;10.60;51.10
17399;DHT22;8817;48.170;8.592;2023-02-13T13:38:45;10.70;51.20
17399;DHT22;8817;48.170;8.592;2023-02-13T13:41:21;10.80;51.30
17399;DHT22;8817;48.170;8.592;2023-02-13T13:44:05;10.80;51.20
17399;DHT22;8817;48.170;8.592;2023-02-13T13:46:43;10.90;51.20
17399;DHT22;8817;48.170;8.592;2023-02-13T13:49:24;11.00;51.10
17399;DHT22;8817;48.170;8.592;2023-02-13T13:52:08;11.00;51.10
17399;DHT22;8817;48.170;8.592;2023-02-13T13:54:35;11.00;51.30
17399;DHT22;8817;48.170;8.592;2023-02-13T13:57:10;11.20;51.60
17399;DHT22;8817;48.170;8.592;2023-02-13T14:02:45;11.40;52.10
17399;DHT22;8817;48.170;8.592;2023-02-13T14:05:25;11.60;52.20
17399;DHT22;8817;48.170;8.592;2023-02-13T14:07:54;11.70;52.20
17399;DHT22;8817;48.170;8.592;2023-02-13T14:13:35;12.00;52.30
17399;DHT22;8817;48.170;8.592;2023-02-13T14:16:04;12.20;52.20
17399;DHT22;8817;48.170;8.592;2023-02-13T14:18:33;12.40;52.20
17399;DHT22;8817;48.170;8.592;2023-02-13T14:21:02;12.50;52.30
17399;DHT22;8817;48.170;8.592;2023-02-13T14:23:33;12.70;52.60
17399;DHT22;8817;48.170;8.592;2023-02-13T14:26:30;12.80;52.60
17399;DHT22;8817;48.170;8.592;2023-02-13T14:32:14;13.20;52.70
17399;DHT22;8817;48.170;8.592;2023-02-13T14:34:50;13.30;52.80
17399;DHT22;8817;48.170;8.592;2023-02-13T14:37:21;13.50;52.90
17399;DHT22;8817;48.170;8.592;2023-02-13T14:46:15;14.10;52.80
17399;DHT22;8817;48.170;8.592;2023-02-13T14:48:50;14.20;52.70
17399;DHT22;8817;48.170;8.592;2023-02-13T14:51:23;14.40;52.40
17399;DHT22;8817;48.170;8.592;2023-02-13T14:53:57;14.50;52.20
17399;DHT22;8817;48.170;8.592;2023-02-13T14:56:25;14.70;52.10
17399;DHT22;8817;48.170;8.592;2023-02-13T14:59:01;14.70;52.10
17399;DHT22;8817;48.170;8.592;2023-02-13T15:01:33;14.80;52.00
17399;DHT22;8817;48.170;8.592;2023-02-13T15:04:08;14.90;52.00
17399;DHT22;8817;48.170;8.592;2023-02-13T15:06:40;15.00;51.70
17399;DHT22;8817;48.170;8.592;2023-02-13T15:09:18;15.10;51.50
17399;DHT22;8817;48.170;8.592;2023-02-13T15:11:46;15.10;51.30
17399;DHT22;8817;48.170;8.592;2023-02-13T15:14:17;15.10;51.40
17399;DHT22;8817;48.170;8.592;2023-02-13T15:16:49;15.10;51.30
17399;DHT22;8817;48.170;8.592;2023-02-13T15:19:19;15.20;51.30
17399;DHT22;8817;48.170;8.592;2023-02-13T15:21:50;15.20;51.20
17399;DHT22;8817;48.170;8.592;2023-02-13T15:24:19;15.30;51.10
17399;DHT22;8817;48.170;8.592;2023-02-13T15:26:57;15.30;51.10
17399;DHT22;8817;48.170;8.592;2023-02-13T15:29:25;15.30;51.10
17399;DHT22;8817;48.170;8.592;2023-02-13T15:31:52;15.40;51.20
17399;DHT22;8817;48.170;8.592;2023-02-13T15:34:22;15.40;51.30
17399;DHT22;8817;48.170;8.592;2023-02-13T15:36:50;15.40;51.40
17399;DHT22;8817;48.170;8.592;2023-02-13T15:39:19;15.50;51.40
17399;DHT22;8817;48.170;8.592;2023-02-13T15:41:50;15.60;51.50
17399;DHT22;8817;48.170;8.592;2023-02-13T15:44:19;15.60;51.70
17399;DHT22;8817;48.170;8.592;2023-02-13T15:46:47;15.70;52.00
17399;DHT22;8817;48.170;8.592;2023-02-13T15:49:17;15.90;52.20
17399;DHT22;8817;48.170;8.592;2023-02-13T15:51:45;16.00;52.30
17399;DHT22;8817;48.170;8.592;2023-02-13T15:54:25;16.10;52.30
17399;DHT22;8817;48.170;8.592;2023-02-13T15:56:54;16.30;52.10
17399;DHT22;8817;48.170;8.592;2023-02-13T15:59:24;16.50;51.90
17399;DHT22;8817;48.170;8.592;2023-02-13T16:01:52;16.60;51.50
17399;DHT22;8817;48.170;8.592;2023-02-13T16:04:19;16.60;51.00
17399;DHT22;8817;48.170;8.592;2023-02-13T16:06:48;16.60;50.50
17399;DHT22;8817;48.170;8.592;2023-02-13T16:09:28;16.60;49.70
17399;DHT22;8817;48.170;8.592;2023-02-13T16:11:59;16.40;49.00
17399;DHT22;8817;48.170;8.592;2023-02-13T16:14:27;16.20;48.50
17399;DHT22;8817;48.170;8.592;2023-02-13T16:16:57;15.90;48.40
17399;DHT22;8817;48.170;8.592;2023-02-13T16:19:30;15.70;48.70
17399;DHT22;8817;48.170;8.592;2023-02-13T16:22:01;15.50;48.70
17399;DHT22;8817;48.170;8.592;2023-02-13T16:24:30;15.30;48.60
17399;DHT22;8817;48.170;8.592;2023-02-13T16:26:57;15.10;48.20
17399;DHT22;8817;48.170;8.592;2023-02-13T16:29:25;14.80;48.00
17399;DHT22;8817;48.170;8.592;2023-02-13T16:32:02;14.50;47.90
17399;DHT22;8817;48.170;8.592;2023-02-13T16:34:30;14.20;47.90
17399;DHT22;8817;48.170;8.592;2023-02-13T16:36:57;14.00;47.80
17399;DHT22;8817;48.170;8.592;2023-02-13T16:39:27;13.70;47.80
17399;DHT22;8817;48.170;8.592;2023-02-13T16:41:57;13.40;47.80
17399;DHT22;8817;48.170;8.592;2023-02-13T16:44:26;13.10;47.80
17399;DHT22;8817;48.170;8.592;2023-02-13T16:46:55;12.90;47.90
17399;DHT22;8817;48.170;8.592;2023-02-13T16:49:25;12.60;47.90
17399;DHT22;8817;48.170;8.592;2023-02-13T16:51:56;12.40;48.00
17399;DHT22;8817;48.170;8.592;2023-02-13T16:54:30;12.20;48.10
17399;DHT22;8817;48.170;8.592;2023-02-13T16:57:01;11.90;48.10
17399;DHT22;8817;48.170;8.592;2023-02-13T16:59:33;11.80;48.30
17399;DHT22;8817;48.170;8.592;2023-02-13T17:02:17;11.60;48.30